ADDS METAR Data INFO
IDs: Format: Raw Decoded Include TAF

Data at: 0838 UTC 21 Oct 2017

PAMK 210835Z AUTO 14009KT 9SM -SN BKN026 BKN034 BKN050 M05/M07 A2919 RMK AO2 P0000 FZRANO $
PAMK 210756Z AUTO 14014KT 9SM -SN SCT024 BKN032 OVC075 M04/M07 A2918 RMK AO2 SNB37 SLP885 P0000 T10441067 FZRANO $
PAMK 210752Z AUTO 14015KT 9SM -SN BKN024 BKN032 BKN075 M04/M07 A2918 RMK AO2 SNB37 P0000 FZRANO $
PAMK 210656Z AUTO 15016KT 10SM FEW080 M04/M07 A2917 RMK AO2 SNB07E20 SLP881 P0000 T10441067 FZRANO $
PAMK 210556Z AUTO 15010KT 10SM BKN090 M04/M07 A2917 RMK AO2 SLP881 60000 T10441067 11033 21056 51001 FZRANO $
PAMK 210456Z AUTO 16015KT 10SM SCT085 M04/M07 A2917 RMK AO2 SNB35E48 SLP880 P0000 T10441067 FZRANO $
PAMK 210356Z AUTO 16013KT 10SM FEW029 BKN065 M05/M07 A2917 RMK AO2 SNE00 SLP880 P0000 T10501072 FZRANO $
PAMK 210307Z AUTO 16016KT 10SM SCT028 BKN033 OVC049 M04/M07 A2916 RMK AO2 SNE00 P0000 FZRANO $
PAMK 210256Z AUTO 16014KT 9SM -SN OVC028 M04/M07 A2916 RMK AO2 SNB33 SLP880 P0000 60000 T10391067 55003 FZRANO $
PAMK 210156Z AUTO 15010KT 10SM CLR M05/M08 A2916 RMK AO2 SLP878 T10501083 FZRANO $
PAMK 210056Z AUTO 16012KT 10SM CLR M03/M07 A2917 RMK AO2 SLP881 T10331072 FZRANO $
PAMK 202356Z AUTO 17016KT 10SM CLR M03/M07 A2917 RMK AO2 SLP883 60000 T10331067 11033 21083 56006 FZRANO $
PAMK 202256Z AUTO 17016G20KT 10SM CLR M03/M07 A2918 RMK AO2 SLP884 T10331067 FZRANO $
PAMK 202156Z AUTO 19014KT 10SM CLR M04/M07 A2918 RMK AO2 SLP886 T10391072 FZRANO $
PAMK 202056Z AUTO 17014KT 10SM CLR M05/M07 A2919 RMK AO2 SLP889 60000 T10501072 58005 FZRANO $
PAMK 201956Z AUTO 19013KT 10SM FEW035 M06/M08 A2920 RMK AO2 SNB15E45 SLP891 P0000 T10611078 FZRANO $
PAMK 201856Z AUTO 19011KT 10SM SCT004 M08/M09 A2920 RMK AO2 SLP892 T10831094 FZRANO $
PAMK 201815Z AUTO 19010KT 10SM BKN004 BKN075 OVC095 M07/M08 A2921 RMK AO2 FZRANO $
PAMK 201805Z AUTO 20012KT 10SM SCT004 BKN018 OVC095 M07/M08 A2920 RMK AO2 CIG 015V026 FZRANO $
PAMK 201756Z AUTO 20011KT 9SM FEW018 BKN075 OVC095 M07/M08 A2921 RMK AO2 SNE51 SLP893 P0000 60000 T10671078 11039 21072 58005 FZRANO $
PAMK 201740Z AUTO 20012KT 9SM -SN FEW013 BKN046 OVC055 M07/M08 A2921 RMK AO2 P0000 FZRANO $
PAMK 201717Z AUTO 20008KT 4SM -SN BR SCT011 BKN024 OVC034 M06/M07 A2921 RMK AO2 P0000 FZRANO $
PAMK 201710Z AUTO 21010KT 2SM -SN BR BKN011 BKN024 OVC070 M06/M07 A2921 RMK AO2 P0000 FZRANO $
PAMK 201703Z AUTO 21011KT 1 3/4SM -SN BR SCT013 BKN024 BKN070 M06/M08 A2921 RMK AO2 VIS 1 1/2V3 P0000 FZRANO $
PAMK 201656Z AUTO 22011KT 3SM -SN BR FEW013 SCT024 BKN045 M06/M08 A2921 RMK AO2 SNE1559B47 SLP896 P0000 T10611078 FZRANO $
PAMK 201556Z AUTO 19008KT 9SM -SN SCT050 M07/M08 A2922 RMK AO2 SLP897 P0000 T10721083 FZRANO $
PAMK 201535Z AUTO 17008KT 10SM -SN FEW027 SCT036 OVC050 M06/M07 A2922 RMK AO2 P0000 FZRANO $
PAMK 201456Z AUTO 18007KT 9SM -SN FEW005 BKN027 OVC035 M04/M05 A2922 RMK AO2 SLP899 P0000 60000 T10441050 56007 FZRANO $
PAMK 201452Z AUTO 19008KT 6SM -SN BR FEW005 BKN027 OVC035 M04/M05 A2922 RMK AO2 P0000 FZRANO $
PAMK 201444Z AUTO 19009KT 2 1/2SM -SN BR SCT007 BKN025 OVC043 M04/M05 A2922 RMK AO2 P0000 FZRANO $
PAMK 201434Z AUTO 20011KT 2 1/2SM -SN BR FEW009 BKN036 OVC085 M04/M04 A2922 RMK AO2 P0000 FZRANO $
PAMK 201356Z AUTO 21009KT 7SM -SN SCT038 BKN055 OVC100 M04/M04 A2923 RMK AO2 SNB33 SLP901 P0000 T10391044 FZRANO $
PAMK 201256Z AUTO 22010KT 10SM CLR M05/M06 A2924 RMK AO2 SLP905 T10501056 FZRANO $
PAMK 201156Z AUTO 22010KT 10SM FEW045 M06/M06 A2925 RMK AO2 SLP909 60001 70003 T10561061 11022 21056 58009 FZRANO $
PAMK 201056Z AUTO 22009KT 10SM CLR M04/M06 A2926 RMK AO2 SNE24 SLP912 P0000 T10441056 FZRANO $
PAMK 201017Z AUTO 22007KT 9SM -SN SCT018 BKN043 M04/M05 A2927 RMK AO2 P0000 FZRANO $
PAMK 201004Z AUTO 21008KT 9SM -SN FEW006 SCT010 BKN016 M03/M04 A2927 RMK AO2 P0000 FZRANO $
PAMK 200956Z AUTO 21008KT 5SM -SN BR FEW006 BKN010 OVC018 M03/M04 A2927 RMK AO2 SLP916 P0000 T10331039 FZRANO $
PAMK 200938Z AUTO 00000KT 2 1/2SM -SN BR BKN008 OVC012 M03/M03 A2928 RMK AO2 CIG 005V010 P0000 FZRANO $
PAMK 200925Z AUTO 23007KT 1 3/4SM -SN BR FEW004 BKN010 OVC014 M03/M03 A2928 RMK AO2 CIG 007V012 P0000 FZRANO $
PAMK 200912Z AUTO 22011KT 4SM -SN BR SCT004 OVC012 M03/M03 A2928 RMK AO2 P0000 FZRANO $
PAMK 200907Z AUTO 22010KT 2 1/2SM -SN BR BKN004 BKN008 OVC012 M03/M03 A2928 RMK AO2 P0000 FZRANO $
PAMK 200903Z AUTO 23009KT 1SM -SN BR BKN004 OVC011 M03/M03 A2928 RMK AO2 P0000 FZRANO $
PAMK 200856Z AUTO 21009KT 1/2SM SN FZFG BKN004 OVC026 M03/M03 A2928 RMK AO2 SLP918 P0000 60001 T10281033 400001056 56008 FZRANO $
PAMK 200847Z AUTO 22011KT 3/4SM -SN BR BKN004 BKN019 OVC026 M03/M03 A2928 RMK AO2 CIG 004V011 P0000 FZRANO $
PAMK 200843Z AUTO 22010KT 1SM -SN BR SCT006 BKN026 OVC033 M03/M03 A2928 RMK AO2 P0000 FZRANO $
PAMK 200839Z AUTO 23009KT 2 1/2SM -SN BR FEW008 BKN026 OVC033 M03/M04 A2929 RMK AO2 P0000 FZRANO $
PAMK 200834Z AUTO 22009KT 9SM -SN FEW021 BKN026 OVC044 M03/M04 A2928 RMK AO2 P0000 FZRANO $
PAMK 200756Z AUTO 22010KT 9SM -SN FEW038 BKN050 M03/M03 A2928 RMK AO2 SNB30 SLP918 P0000 T10281033 FZRANO $
PAMK 200656Z AUTO 21011KT 10SM FEW042 M03/M05 A2929 RMK AO2 SNE36 SLP921 P0001 T10331050 FZRANO $
PAMK 200634Z AUTO 27007KT 9SM -SN FEW010 BKN039 OVC100 M02/M03 A2929 RMK AO2 P0001 FZRANO $
PAMK 200627Z AUTO 28008KT 9SM -SN SCT012 BKN019 OVC100 M02/M03 A2930 RMK AO2 P0001 FZRANO $
PAMK 200614Z AUTO 26005KT 3SM -SN BR BKN010 BKN019 OVC030 M02/M03 A2930 RMK AO2 P0001 FZRANO $
PAMK 200601Z AUTO 22008KT 2 1/2SM -SN BR FEW012 BKN021 OVC040 M02/M03 A2930 RMK AO2 P0000 FZRANO $
PAMK 200556Z AUTO 21009KT 6SM -SN BR SCT023 BKN030 OVC048 M02/M03 A2930 RMK AO2 SLP927 P0000 60001 T10221028 10000 21022 56015 FZRANO $
PAMK 200528Z AUTO 22012KT 8SM -SN SCT013 BKN039 OVC048 M02/M03 A2931 RMK AO2 P0000 FZRANO $
PAMK 200519Z AUTO 22009KT 2SM -SN BR FEW009 BKN032 OVC040 M02/M03 A2931 RMK AO2 P0000 FZRANO $
PAMK 200514Z AUTO 21012KT 2SM -SN BR BKN013 BKN033 OVC042 M02/M03 A2931 RMK AO2 CIG 008V021 P0000 FZRANO $
PAMK 200456Z AUTO 23010KT 9SM -SN FEW021 BKN034 OVC060 M02/M04 A2932 RMK AO2 SNB37 SLP931 P0000 T10171039 FZRANO $
PAMK 200426Z AUTO 24012KT 10SM SCT026 BKN039 OVC095 M01/M03 A2932 RMK AO2 FZRANO $
PAMK 200356Z AUTO 25009KT 10SM BKN024 BKN039 OVC100 M01/M04 A2933 RMK AO2 SNE33 SLP937 P0000 T10111039 FZRANO $
PAMK 200316Z AUTO 23009KT 9SM FEW012 BKN019 OVC041 M01/M03 A2934 RMK AO2 SNE15 P0000 FZRANO $
PAMK 200256Z AUTO 23015G19KT 3SM -SN BR FEW013 BKN031 OVC041 M02/M03 A2935 RMK AO2 SNE31B50 SLP941 P0001 60001 T10171033 58021 FZRANO $
PAMK 200230Z AUTO 21011KT 9SM -SN SCT006 BKN020 OVC100 M02/M03 A2935 RMK AO2 P0001 FZRANO $
PAMK 200220Z AUTO 21007KT 3SM -SN BR BKN006 BKN018 BKN023 M01/M03 A2936 RMK AO2 CIG 005V011 P0001 FZRANO $
PAMK 200216Z AUTO 22005KT 1 1/4SM -SN BR BKN006 BKN020 OVC028 M01/M03 A2936 RMK AO2 CIG 005V011 P0001 FZRANO $
PAMK 200210Z AUTO 26008G18KT 1SM -SN BR SCT006 BKN017 OVC033 M01/M03 A2937 RMK AO2 P0000 FZRANO $
PAMK 200206Z AUTO 26014G18KT 2 1/2SM -SN BR FEW008 BKN021 OVC033 M01/M03 A2937 RMK AO2 P0000 FZRANO $
PAMK 200156Z AUTO 24008KT 7SM -SN SCT023 BKN028 OVC065 M01/M03 A2937 RMK AO2 UPB52E54SNE07B54 SLP948 P0000 T10061028 FZRANO $
PAMK 200109Z AUTO 23009KT 9SM FEW016 SCT033 BKN095 M01/M03 A2938 RMK AO2 SNE07 P0000 FZRANO $
PAMK 200056Z AUTO 24010KT 9SM -SN SCT014 BKN029 OVC065 M01/M02 A2939 RMK AO2 SLP956 P0000 T10061022 FZRANO $
PAMK 200054Z AUTO 24010KT 3SM -SN BR SCT014 BKN029 OVC060 M01/M02 A2939 RMK AO2 P0000 FZRANO $
PAMK 200043Z AUTO 24014KT 1 3/4SM -SN BR FEW010 BKN020 OVC045 M01/M03 A2939 RMK AO2 CIG 016V028 P0000 FZRANO $
PAMK 200023Z AUTO 24013KT 9SM -SN FEW011 BKN026 OVC036 M01/M02 A2940 RMK AO2 P0000 FZRANO $
PAMK 200014Z AUTO 24014KT 2SM -SN BR FEW008 BKN018 OVC037 M01/M02 A2940 RMK AO2 P0000 FZRANO $
PAMK 200008Z AUTO 24015KT 1 3/4SM -SN BR BKN018 OVC026 00/M02 A2940 RMK AO2 VIS 1V5 P0000 FZRANO $
PAMK 192356Z AUTO 25014G20KT 9SM -SN BKN017 BKN029 OVC038 00/M03 A2941 RMK AO2 SNB09 SLP962 P0000 60001 T00001028 10000 21039 58022 FZRANO $
PAMK 192348Z AUTO 25015G20KT 9SM -SN SCT017 BKN029 OVC038 00/M02 A2941 RMK AO2 SNB09 P0000 FZRANO $
PAMK 192305Z AUTO 22013KT 10SM FEW013 SCT027 BKN110 M01/M03 A2942 RMK AO2 FZRANO $
PAMK 192256Z AUTO 22016KT 9SM SCT013 BKN024 BKN032 M01/M03 A2943 RMK AO2 SNE54 SLP969 P0000 T10061028 FZRANO $
PAMK 192244Z AUTO 23015KT 3SM -SN BR BKN013 BKN024 OVC041 M01/M02 A2944 RMK AO2 P0000 FZRANO $
PAMK 192234Z AUTO 22012KT 2 1/2SM -SN BR SCT013 BKN027 OVC047 M01/M02 A2944 RMK AO2 P0000 FZRANO $
PAMK 192230Z AUTO 22013KT 7SM -SN FEW015 SCT027 OVC043 M01/M02 A2944 RMK AO2 P0000 FZRANO $
PAMK 192156Z AUTO 26012KT 4SM -SN BR SCT010 BKN018 OVC026 M01/M02 A2945 RMK AO2 SLP978 P0001 T10061022 FZRANO $
PAMK 192147Z AUTO 24014G22KT 8SM -SN BKN012 BKN023 OVC028 M01/M02 A2946 RMK AO2 P0001 FZRANO $
PAMK 192105Z AUTO 21007KT 6SM -SN BR FEW008 BKN022 OVC032 M02/M03 A2947 RMK AO2 P0000 FZRANO $
PAMK 192056Z AUTO 23008KT 7SM -SN FEW008 BKN032 OVC042 M01/M03 A2947 RMK AO2 SNB08 SLP984 P0000 60000 T10111028 56012 FZRANO $